sensor_id;sensor_type;location;lat;lon;timestamp;P1;durP1;ratioP1;P2;durP2;ratioP2
52512;SDS011;38422;53.172;6.974;2022-11-20T00:00:55;14.88;;;8.75;;
52512;SDS011;38422;53.172;6.974;2022-11-20T00:03:21;14.43;;;9.40;;
52512;SDS011;38422;53.172;6.974;2022-11-20T00:05:47;22.73;;;12.30;;
52512;SDS011;38422;53.172;6.974;2022-11-20T00:08:13;24.73;;;12.48;;
52512;SDS011;38422;53.172;6.974;2022-11-20T00:10:39;31.77;;;16.48;;
52512;SDS011;38422;53.172;6.974;2022-11-20T00:13:05;24.17;;;12.50;;
52512;SDS011;38422;53.172;6.974;2022-11-20T00:15:32;15.25;;;9.45;;
52512;SDS011;38422;53.172;6.974;2022-11-20T00:17:57;13.43;;;8.65;;
52512;SDS011;38422;53.172;6.974;2022-11-20T00:20:23;15.10;;;9.30;;
52512;SDS011;38422;53.172;6.974;2022-11-20T00:22:49;21.75;;;12.13;;
52512;SDS011;38422;53.172;6.974;2022-11-20T00:25:15;18.92;;;11.13;;
52512;SDS011;38422;53.172;6.974;2022-11-20T00:27:41;12.63;;;8.95;;
52512;SDS011;38422;53.172;6.974;2022-11-20T00:30:07;13.60;;;9.50;;
52512;SDS011;38422;53.172;6.974;2022-11-20T00:32:33;18.23;;;11.35;;
52512;SDS011;38422;53.172;6.974;2022-11-20T00:34:58;15.70;;;9.60;;
52512;SDS011;38422;53.172;6.974;2022-11-20T00:37:25;22.60;;;19.13;;
52512;SDS011;38422;53.172;6.974;2022-11-20T00:39:51;22.67;;;16.05;;
52512;SDS011;38422;53.172;6.974;2022-11-20T00:42:16;21.55;;;15.45;;
52512;SDS011;38422;53.172;6.974;2022-11-20T00:44:42;17.35;;;11.10;;
52512;SDS011;38422;53.172;6.974;2022-11-20T00:47:08;14.02;;;9.55;;
52512;SDS011;38422;53.172;6.974;2022-11-20T00:49:34;14.02;;;9.98;;
52512;SDS011;38422;53.172;6.974;2022-11-20T00:51:59;13.27;;;9.00;;
52512;SDS011;38422;53.172;6.974;2022-11-20T00:54:25;17.00;;;10.27;;
52512;SDS011;38422;53.172;6.974;2022-11-20T00:56:52;14.50;;;9.95;;
52512;SDS011;38422;53.172;6.974;2022-11-20T00:59:18;13.70;;;9.65;;
52512;SDS011;38422;53.172;6.974;2022-11-20T01:01:44;14.35;;;9.65;;
52512;SDS011;38422;53.172;6.974;2022-11-20T01:04:10;13.30;;;9.32;;
52512;SDS011;38422;53.172;6.974;2022-11-20T01:06:36;15.20;;;10.02;;
52512;SDS011;38422;53.172;6.974;2022-11-20T01:11:35;14.57;;;9.90;;
52512;SDS011;38422;53.172;6.974;2022-11-20T01:14:03;13.35;;;9.27;;
52512;SDS011;38422;53.172;6.974;2022-11-20T01:16:33;15.77;;;9.50;;
52512;SDS011;38422;53.172;6.974;2022-11-20T01:19:00;13.90;;;9.25;;
52512;SDS011;38422;53.172;6.974;2022-11-20T01:21:29;13.88;;;9.68;;
52512;SDS011;38422;53.172;6.974;2022-11-20T01:23:57;13.45;;;8.93;;
52512;SDS011;38422;53.172;6.974;2022-11-20T01:26:25;13.10;;;8.90;;
52512;SDS011;38422;53.172;6.974;2022-11-20T01:28:53;14.43;;;9.30;;
52512;SDS011;38422;53.172;6.974;2022-11-20T01:31:20;12.97;;;8.93;;
52512;SDS011;38422;53.172;6.974;2022-11-20T01:33:52;13.18;;;8.93;;
52512;SDS011;38422;53.172;6.974;2022-11-20T01:36:20;13.13;;;9.40;;
52512;SDS011;38422;53.172;6.974;2022-11-20T01:38:47;14.63;;;8.90;;
52512;SDS011;38422;53.172;6.974;2022-11-20T01:41:15;14.23;;;8.80;;
52512;SDS011;38422;53.172;6.974;2022-11-20T01:44:00;13.85;;;9.32;;
52512;SDS011;38422;53.172;6.974;2022-11-20T01:46:27;19.17;;;11.50;;
52512;SDS011;38422;53.172;6.974;2022-11-20T01:52:23;17.15;;;11.18;;
52512;SDS011;38422;53.172;6.974;2022-11-20T01:54:46;16.42;;;10.77;;
52512;SDS011;38422;53.172;6.974;2022-11-20T01:57:16;14.45;;;9.57;;
52512;SDS011;38422;53.172;6.974;2022-11-20T01:59:46;13.73;;;9.18;;
52512;SDS011;38422;53.172;6.974;2022-11-20T02:02:17;17.17;;;10.60;;
52512;SDS011;38422;53.172;6.974;2022-11-20T02:04:43;14.73;;;10.02;;
52512;SDS011;38422;53.172;6.974;2022-11-20T02:07:09;14.20;;;9.43;;
52512;SDS011;38422;53.172;6.974;2022-11-20T02:09:35;12.85;;;8.73;;
52512;SDS011;38422;53.172;6.974;2022-11-20T02:12:01;14.60;;;9.15;;
52512;SDS011;38422;53.172;6.974;2022-11-20T02:14:28;13.60;;;9.07;;
52512;SDS011;38422;53.172;6.974;2022-11-20T02:16:54;15.75;;;9.13;;
52512;SDS011;38422;53.172;6.974;2022-11-20T02:19:27;12.80;;;8.52;;
52512;SDS011;38422;53.172;6.974;2022-11-20T02:22:00;13.82;;;8.15;;
52512;SDS011;38422;53.172;6.974;2022-11-20T02:24:50;11.93;;;8.57;;
52512;SDS011;38422;53.172;6.974;2022-11-20T02:27:16;11.75;;;8.38;;
52512;SDS011;38422;53.172;6.974;2022-11-20T02:32:20;12.82;;;8.60;;
52512;SDS011;38422;53.172;6.974;2022-11-20T02:34:53;12.85;;;8.25;;
52512;SDS011;38422;53.172;6.974;2022-11-20T02:37:19;12.63;;;8.90;;
52512;SDS011;38422;53.172;6.974;2022-11-20T02:39:46;14.23;;;8.88;;
52512;SDS011;38422;53.172;6.974;2022-11-20T02:42:14;14.23;;;8.52;;
52512;SDS011;38422;53.172;6.974;2022-11-20T02:44:40;13.23;;;8.88;;
52512;SDS011;38422;53.172;6.974;2022-11-20T02:47:06;13.13;;;8.68;;
52512;SDS011;38422;53.172;6.974;2022-11-20T02:49:32;14.90;;;8.93;;
52512;SDS011;38422;53.172;6.974;2022-11-20T02:51:58;11.75;;;8.23;;
52512;SDS011;38422;53.172;6.974;2022-11-20T02:54:24;13.18;;;9.10;;
52512;SDS011;38422;53.172;6.974;2022-11-20T02:56:49;12.63;;;8.13;;
52512;SDS011;38422;53.172;6.974;2022-11-20T02:59:15;13.55;;;8.63;;
52512;SDS011;38422;53.172;6.974;2022-11-20T03:01:41;12.18;;;8.18;;
52512;SDS011;38422;53.172;6.974;2022-11-20T03:04:06;12.82;;;8.48;;
52512;SDS011;38422;53.172;6.974;2022-11-20T03:06:32;13.20;;;8.48;;
52512;SDS011;38422;53.172;6.974;2022-11-20T03:08:58;12.88;;;8.77;;
52512;SDS011;38422;53.172;6.974;2022-11-20T03:11:24;13.52;;;8.68;;
52512;SDS011;38422;53.172;6.974;2022-11-20T03:13:50;13.10;;;8.77;;
52512;SDS011;38422;53.172;6.974;2022-11-20T03:16:17;12.55;;;8.43;;
52512;SDS011;38422;53.172;6.974;2022-11-20T03:18:45;12.60;;;8.65;;
52512;SDS011;38422;53.172;6.974;2022-11-20T03:21:11;12.20;;;7.82;;
52512;SDS011;38422;53.172;6.974;2022-11-20T03:23:38;13.73;;;8.25;;
52512;SDS011;38422;53.172;6.974;2022-11-20T03:28:41;14.02;;;8.50;;
52512;SDS011;38422;53.172;6.974;2022-11-20T03:31:14;13.18;;;8.60;;
52512;SDS011;38422;53.172;6.974;2022-11-20T03:33:41;12.57;;;8.50;;
52512;SDS011;38422;53.172;6.974;2022-11-20T03:36:08;12.33;;;8.20;;
52512;SDS011;38422;53.172;6.974;2022-11-20T03:38:36;11.65;;;8.05;;
52512;SDS011;38422;53.172;6.974;2022-11-20T03:41:03;12.65;;;8.00;;
52512;SDS011;38422;53.172;6.974;2022-11-20T03:43:31;13.00;;;8.23;;
52512;SDS011;38422;53.172;6.974;2022-11-20T03:45:57;12.85;;;8.52;;
52512;SDS011;38422;53.172;6.974;2022-11-20T03:48:23;12.38;;;8.07;;
52512;SDS011;38422;53.172;6.974;2022-11-20T03:50:49;12.50;;;8.27;;
52512;SDS011;38422;53.172;6.974;2022-11-20T03:53:15;11.20;;;8.10;;
52512;SDS011;38422;53.172;6.974;2022-11-20T03:55:41;12.77;;;8.43;;
52512;SDS011;38422;53.172;6.974;2022-11-20T03:58:07;12.93;;;8.32;;
52512;SDS011;38422;53.172;6.974;2022-11-20T04:00:33;12.10;;;8.52;;
52512;SDS011;38422;53.172;6.974;2022-11-20T04:02:59;12.75;;;8.35;;
52512;SDS011;38422;53.172;6.974;2022-11-20T04:05:27;13.85;;;8.73;;
52512;SDS011;38422;53.172;6.974;2022-11-20T04:07:53;11.23;;;8.13;;
52512;SDS011;38422;53.172;6.974;2022-11-20T04:10:19;13.30;;;8.57;;
52512;SDS011;38422;53.172;6.974;2022-11-20T04:12:45;12.05;;;7.97;;
52512;SDS011;38422;53.172;6.974;2022-11-20T04:15:10;13.25;;;8.32;;
52512;SDS011;38422;53.172;6.974;2022-11-20T04:17:36;12.40;;;7.80;;
52512;SDS011;38422;53.172;6.974;2022-11-20T04:20:02;13.07;;;7.78;;
52512;SDS011;38422;53.172;6.974;2022-11-20T04:22:28;11.57;;;7.95;;
52512;SDS011;38422;53.172;6.974;2022-11-20T04:24:53;12.15;;;7.63;;
52512;SDS011;38422;53.172;6.974;2022-11-20T04:27:19;12.15;;;7.90;;
52512;SDS011;38422;53.172;6.974;2022-11-20T04:29:45;13.85;;;7.90;;
52512;SDS011;38422;53.172;6.974;2022-11-20T04:32:10;12.95;;;7.88;;
52512;SDS011;38422;53.172;6.974;2022-11-20T04:34:36;11.48;;;7.57;;
52512;SDS011;38422;53.172;6.974;2022-11-20T04:37:02;11.80;;;7.28;;
52512;SDS011;38422;53.172;6.974;2022-11-20T04:39:27;12.13;;;8.50;;
52512;SDS011;38422;53.172;6.974;2022-11-20T04:41:53;11.27;;;7.55;;
52512;SDS011;38422;53.172;6.974;2022-11-20T04:44:38;11.45;;;7.63;;
52512;SDS011;38422;53.172;6.974;2022-11-20T04:47:04;11.63;;;7.93;;
52512;SDS011;38422;53.172;6.974;2022-11-20T04:49:30;12.50;;;8.27;;
52512;SDS011;38422;53.172;6.974;2022-11-20T04:51:57;13.13;;;8.65;;
52512;SDS011;38422;53.172;6.974;2022-11-20T04:54:23;12.77;;;8.60;;
52512;SDS011;38422;53.172;6.974;2022-11-20T04:56:49;12.07;;;8.73;;
52512;SDS011;38422;53.172;6.974;2022-11-20T04:59:15;13.77;;;8.77;;
52512;SDS011;38422;53.172;6.974;2022-11-20T05:01:41;12.70;;;8.45;;
52512;SDS011;38422;53.172;6.974;2022-11-20T05:04:07;12.07;;;8.10;;
52512;SDS011;38422;53.172;6.974;2022-11-20T05:06:33;13.07;;;8.48;;
52512;SDS011;38422;53.172;6.974;2022-11-20T05:08:59;12.48;;;8.30;;
52512;SDS011;38422;53.172;6.974;2022-11-20T05:11:26;13.10;;;8.40;;
52512;SDS011;38422;53.172;6.974;2022-11-20T05:13:54;13.23;;;9.00;;
52512;SDS011;38422;53.172;6.974;2022-11-20T05:16:23;13.45;;;8.70;;
52512;SDS011;38422;53.172;6.974;2022-11-20T05:18:50;12.70;;;8.63;;
52512;SDS011;38422;53.172;6.974;2022-11-20T05:21:16;11.77;;;8.38;;
52512;SDS011;38422;53.172;6.974;2022-11-20T05:23:43;14.70;;;9.02;;
52512;SDS011;38422;53.172;6.974;2022-11-20T05:26:13;13.57;;;8.90;;
52512;SDS011;38422;53.172;6.974;2022-11-20T05:28:40;13.38;;;9.13;;
52512;SDS011;38422;53.172;6.974;2022-11-20T05:31:10;15.18;;;9.75;;
52512;SDS011;38422;53.172;6.974;2022-11-20T05:33:39;14.25;;;9.25;;
52512;SDS011;38422;53.172;6.974;2022-11-20T05:36:07;12.27;;;8.73;;
52512;SDS011;38422;53.172;6.974;2022-11-20T05:38:33;12.55;;;8.73;;
52512;SDS011;38422;53.172;6.974;2022-11-20T05:41:03;12.80;;;9.13;;
52512;SDS011;38422;53.172;6.974;2022-11-20T05:43:31;13.27;;;9.30;;
52512;SDS011;38422;53.172;6.974;2022-11-20T05:45:58;13.27;;;8.98;;
52512;SDS011;38422;53.172;6.974;2022-11-20T05:48:24;12.60;;;8.82;;
52512;SDS011;38422;53.172;6.974;2022-11-20T05:50:50;12.90;;;8.95;;
52512;SDS011;38422;53.172;6.974;2022-11-20T05:53:15;12.82;;;8.63;;
52512;SDS011;38422;53.172;6.974;2022-11-20T05:55:41;13.15;;;8.82;;
52512;SDS011;38422;53.172;6.974;2022-11-20T05:58:07;13.05;;;8.70;;
52512;SDS011;38422;53.172;6.974;2022-11-20T06:00:33;15.30;;;9.60;;
52512;SDS011;38422;53.172;6.974;2022-11-20T06:02:58;14.63;;;8.85;;
52512;SDS011;38422;53.172;6.974;2022-11-20T06:05:24;12.23;;;8.65;;
52512;SDS011;38422;53.172;6.974;2022-11-20T06:07:50;13.23;;;8.90;;
52512;SDS011;38422;53.172;6.974;2022-11-20T06:10:15;12.95;;;8.50;;
52512;SDS011;38422;53.172;6.974;2022-11-20T06:12:41;13.38;;;9.15;;
52512;SDS011;38422;53.172;6.974;2022-11-20T06:15:07;12.13;;;8.25;;
52512;SDS011;38422;53.172;6.974;2022-11-20T06:17:33;13.05;;;8.40;;
52512;SDS011;38422;53.172;6.974;2022-11-20T06:19:58;13.80;;;8.88;;
52512;SDS011;38422;53.172;6.974;2022-11-20T06:22:24;12.82;;;8.60;;
52512;SDS011;38422;53.172;6.974;2022-11-20T06:24:50;11.63;;;8.10;;
52512;SDS011;38422;53.172;6.974;2022-11-20T06:27:16;13.43;;;8.77;;
52512;SDS011;38422;53.172;6.974;2022-11-20T06:29:42;12.55;;;8.77;;
52512;SDS011;38422;53.172;6.974;2022-11-20T06:32:07;16.25;;;8.60;;
52512;SDS011;38422;53.172;6.974;2022-11-20T06:34:33;11.95;;;8.32;;
52512;SDS011;38422;53.172;6.974;2022-11-20T06:36:58;12.70;;;8.13;;
52512;SDS011;38422;53.172;6.974;2022-11-20T06:39:24;11.13;;;7.95;;
52512;SDS011;38422;53.172;6.974;2022-11-20T06:41:50;12.63;;;8.23;;
52512;SDS011;38422;53.172;6.974;2022-11-20T06:44:15;12.23;;;8.15;;
52512;SDS011;38422;53.172;6.974;2022-11-20T06:46:41;13.48;;;8.45;;
52512;SDS011;38422;53.172;6.974;2022-11-20T06:49:07;13.32;;;8.68;;
52512;SDS011;38422;53.172;6.974;2022-11-20T06:51:32;13.25;;;8.52;;
52512;SDS011;38422;53.172;6.974;2022-11-20T06:53:58;12.65;;;8.30;;
52512;SDS011;38422;53.172;6.974;2022-11-20T06:56:25;12.75;;;8.93;;
52512;SDS011;38422;53.172;6.974;2022-11-20T06:58:52;15.40;;;9.85;;
52512;SDS011;38422;53.172;6.974;2022-11-20T07:01:17;14.60;;;9.27;;
52512;SDS011;38422;53.172;6.974;2022-11-20T07:03:43;13.15;;;9.20;;
52512;SDS011;38422;53.172;6.974;2022-11-20T07:06:09;14.35;;;9.63;;
52512;SDS011;38422;53.172;6.974;2022-11-20T07:08:35;14.25;;;9.57;;
52512;SDS011;38422;53.172;6.974;2022-11-20T07:11:02;16.15;;;10.10;;
52512;SDS011;38422;53.172;6.974;2022-11-20T07:13:30;15.40;;;10.00;;
52512;SDS011;38422;53.172;6.974;2022-11-20T07:15:59;15.65;;;10.50;;
52512;SDS011;38422;53.172;6.974;2022-11-20T07:18:30;16.35;;;10.27;;
52512;SDS011;38422;53.172;6.974;2022-11-20T07:20:55;17.17;;;10.82;;
52512;SDS011;38422;53.172;6.974;2022-11-20T07:23:24;16.65;;;11.30;;
52512;SDS011;38422;53.172;6.974;2022-11-20T07:25:50;15.70;;;10.27;;
52512;SDS011;38422;53.172;6.974;2022-11-20T07:28:15;15.23;;;9.90;;
52512;SDS011;38422;53.172;6.974;2022-11-20T07:30:41;14.05;;;9.73;;
52512;SDS011;38422;53.172;6.974;2022-11-20T07:33:07;16.73;;;10.73;;
52512;SDS011;38422;53.172;6.974;2022-11-20T07:35:32;15.13;;;10.13;;
52512;SDS011;38422;53.172;6.974;2022-11-20T07:37:58;15.30;;;9.95;;
52512;SDS011;38422;53.172;6.974;2022-11-20T07:40:24;13.60;;;9.52;;
52512;SDS011;38422;53.172;6.974;2022-11-20T07:42:50;14.95;;;9.85;;
52512;SDS011;38422;53.172;6.974;2022-11-20T07:45:17;14.93;;;10.55;;
52512;SDS011;38422;53.172;6.974;2022-11-20T07:47:43;15.20;;;9.43;;
52512;SDS011;38422;53.172;6.974;2022-11-20T07:50:09;14.90;;;10.13;;
52512;SDS011;38422;53.172;6.974;2022-11-20T07:52:35;16.95;;;10.57;;
52512;SDS011;38422;53.172;6.974;2022-11-20T07:55:01;16.90;;;10.40;;
52512;SDS011;38422;53.172;6.974;2022-11-20T07:57:27;14.38;;;10.20;;
52512;SDS011;38422;53.172;6.974;2022-11-20T07:59:52;12.30;;;8.90;;
52512;SDS011;38422;53.172;6.974;2022-11-20T08:02:18;14.07;;;9.73;;
52512;SDS011;38422;53.172;6.974;2022-11-20T08:04:44;14.85;;;10.07;;
52512;SDS011;38422;53.172;6.974;2022-11-20T08:07:09;15.73;;;10.48;;
52512;SDS011;38422;53.172;6.974;2022-11-20T08:09:35;13.45;;;9.35;;
52512;SDS011;38422;53.172;6.974;2022-11-20T08:12:01;14.40;;;10.75;;
52512;SDS011;38422;53.172;6.974;2022-11-20T08:14:45;16.38;;;12.82;;
52512;SDS011;38422;53.172;6.974;2022-11-20T08:17:10;15.65;;;10.68;;
52512;SDS011;38422;53.172;6.974;2022-11-20T08:19:37;13.52;;;9.00;;
52512;SDS011;38422;53.172;6.974;2022-11-20T08:22:02;13.07;;;9.20;;
52512;SDS011;38422;53.172;6.974;2022-11-20T08:24:28;14.93;;;9.27;;
52512;SDS011;38422;53.172;6.974;2022-11-20T08:26:53;13.63;;;9.35;;
52512;SDS011;38422;53.172;6.974;2022-11-20T08:29:22;16.15;;;8.95;;
52512;SDS011;38422;53.172;6.974;2022-11-20T08:31:47;13.55;;;8.82;;
52512;SDS011;38422;53.172;6.974;2022-11-20T08:34:13;13.88;;;9.10;;
52512;SDS011;38422;53.172;6.974;2022-11-20T08:36:39;12.57;;;8.77;;
52512;SDS011;38422;53.172;6.974;2022-11-20T08:39:04;14.90;;;9.00;;
52512;SDS011;38422;53.172;6.974;2022-11-20T08:41:30;16.60;;;9.00;;
52512;SDS011;38422;53.172;6.974;2022-11-20T08:46:27;12.48;;;8.50;;
52512;SDS011;38422;53.172;6.974;2022-11-20T08:49:04;13.68;;;8.40;;
52512;SDS011;38422;53.172;6.974;2022-11-20T08:51:31;13.88;;;9.20;;
52512;SDS011;38422;53.172;6.974;2022-11-20T08:53:57;15.18;;;9.93;;
52512;SDS011;38422;53.172;6.974;2022-11-20T08:56:23;14.73;;;8.95;;
52512;SDS011;38422;53.172;6.974;2022-11-20T08:58:49;12.95;;;8.57;;
52512;SDS011;38422;53.172;6.974;2022-11-20T09:01:16;13.07;;;8.73;;
52512;SDS011;38422;53.172;6.974;2022-11-20T09:03:42;12.75;;;8.80;;
52512;SDS011;38422;53.172;6.974;2022-11-20T09:06:08;13.23;;;8.75;;
52512;SDS011;38422;53.172;6.974;2022-11-20T09:08:34;12.30;;;8.30;;
52512;SDS011;38422;53.172;6.974;2022-11-20T09:11:01;12.15;;;7.70;;
52512;SDS011;38422;53.172;6.974;2022-11-20T09:13:27;10.82;;;7.40;;
52512;SDS011;38422;53.172;6.974;2022-11-20T09:16:12;12.30;;;7.80;;
52512;SDS011;38422;53.172;6.974;2022-11-20T09:18:38;13.77;;;7.97;;
52512;SDS011;38422;53.172;6.974;2022-11-20T09:21:04;11.38;;;7.38;;
52512;SDS011;38422;53.172;6.974;2022-11-20T09:23:35;11.57;;;7.75;;
52512;SDS011;38422;53.172;6.974;2022-11-20T09:26:11;10.75;;;7.50;;
52512;SDS011;38422;53.172;6.974;2022-11-20T09:28:38;11.98;;;8.07;;
52512;SDS011;38422;53.172;6.974;2022-11-20T09:31:08;12.30;;;7.80;;
52512;SDS011;38422;53.172;6.974;2022-11-20T09:33:40;12.10;;;7.85;;
52512;SDS011;38422;53.172;6.974;2022-11-20T09:36:06;11.68;;;7.70;;
52512;SDS011;38422;53.172;6.974;2022-11-20T09:38:32;11.50;;;7.30;;
52512;SDS011;38422;53.172;6.974;2022-11-20T09:41:10;11.35;;;7.43;;
52512;SDS011;38422;53.172;6.974;2022-11-20T09:44:07;11.98;;;8.05;;
52512;SDS011;38422;53.172;6.974;2022-11-20T09:54:56;13.13;;;8.75;;
52512;SDS011;38422;53.172;6.974;2022-11-20T09:57:27;14.05;;;8.85;;
52512;SDS011;38422;53.172;6.974;2022-11-20T10:00:04;12.07;;;8.35;;
52512;SDS011;38422;53.172;6.974;2022-11-20T10:05:43;11.88;;;7.72;;
52512;SDS011;38422;53.172;6.974;2022-11-20T10:08:14;11.60;;;7.90;;
52512;SDS011;38422;53.172;6.974;2022-11-20T10:17:03;9.88;;;6.93;;
52512;SDS011;38422;53.172;6.974;2022-11-20T10:31:00;10.85;;;7.15;;
52512;SDS011;38422;53.172;6.974;2022-11-20T10:33:33;11.77;;;6.93;;
52512;SDS011;38422;53.172;6.974;2022-11-20T10:39:01;12.40;;;8.10;;
52512;SDS011;38422;53.172;6.974;2022-11-20T10:41:38;13.25;;;9.15;;
52512;SDS011;38422;53.172;6.974;2022-11-20T10:44:17;20.38;;;11.57;;
52512;SDS011;38422;53.172;6.974;2022-11-20T10:47:04;15.75;;;10.27;;
52512;SDS011;38422;53.172;6.974;2022-11-20T10:49:30;18.83;;;12.82;;
52512;SDS011;38422;53.172;6.974;2022-11-20T10:52:14;14.93;;;8.98;;
52512;SDS011;38422;53.172;6.974;2022-11-20T10:57:54;11.45;;;7.65;;
52512;SDS011;38422;53.172;6.974;2022-11-20T11:00:22;11.68;;;8.27;;
52512;SDS011;38422;53.172;6.974;2022-11-20T11:02:51;14.18;;;8.40;;
52512;SDS011;38422;53.172;6.974;2022-11-20T11:08:02;13.65;;;8.10;;
52512;SDS011;38422;53.172;6.974;2022-11-20T11:10:51;11.73;;;7.25;;
52512;SDS011;38422;53.172;6.974;2022-11-20T11:13:19;10.43;;;6.82;;
52512;SDS011;38422;53.172;6.974;2022-11-20T11:15:50;10.02;;;6.93;;
52512;SDS011;38422;53.172;6.974;2022-11-20T11:18:23;10.55;;;7.10;;
52512;SDS011;38422;53.172;6.974;2022-11-20T11:20:55;9.18;;;6.35;;
52512;SDS011;38422;53.172;6.974;2022-11-20T11:23:26;9.55;;;6.72;;
52512;SDS011;38422;53.172;6.974;2022-11-20T11:26:00;9.83;;;6.10;;
52512;SDS011;38422;53.172;6.974;2022-11-20T11:30:53;10.88;;;7.47;;
52512;SDS011;38422;53.172;6.974;2022-11-20T11:35:48;11.18;;;6.82;;
52512;SDS011;38422;53.172;6.974;2022-11-20T11:38:19;9.68;;;6.70;;
52512;SDS011;38422;53.172;6.974;2022-11-20T11:40:53;10.52;;;6.53;;
52512;SDS011;38422;53.172;6.974;2022-11-20T11:43:21;9.18;;;6.00;;
52512;SDS011;38422;53.172;6.974;2022-11-20T11:54:31;8.85;;;6.38;;
52512;SDS011;38422;53.172;6.974;2022-11-20T11:57:17;10.48;;;6.28;;
52512;SDS011;38422;53.172;6.974;2022-11-20T12:00:31;9.35;;;6.28;;
52512;SDS011;38422;53.172;6.974;2022-11-20T12:02:56;10.82;;;6.15;;
52512;SDS011;38422;53.172;6.974;2022-11-20T12:05:37;9.38;;;6.18;;
52512;SDS011;38422;53.172;6.974;2022-11-20T12:08:16;11.93;;;6.78;;
52512;SDS011;38422;53.172;6.974;2022-11-20T12:10:55;10.10;;;6.55;;
52512;SDS011;38422;53.172;6.974;2022-11-20T12:13:54;8.88;;;5.90;;
52512;SDS011;38422;53.172;6.974;2022-11-20T12:16:29;9.65;;;5.97;;
52512;SDS011;38422;53.172;6.974;2022-11-20T12:18:59;9.15;;;6.10;;
52512;SDS011;38422;53.172;6.974;2022-11-20T12:21:28;9.52;;;6.20;;
52512;SDS011;38422;53.172;6.974;2022-11-20T12:27:05;10.32;;;6.57;;
52512;SDS011;38422;53.172;6.974;2022-11-20T12:30:08;9.48;;;6.07;;
52512;SDS011;38422;53.172;6.974;2022-11-20T12:43:29;7.80;;;5.63;;
52512;SDS011;38422;53.172;6.974;2022-11-20T12:46:37;9.57;;;6.25;;
52512;SDS011;38422;53.172;6.974;2022-11-20T12:49:56;8.63;;;6.00;;
52512;SDS011;38422;53.172;6.974;2022-11-20T12:55:00;7.70;;;5.10;;
52512;SDS011;38422;53.172;6.974;2022-11-20T13:01:00;7.68;;;4.47;;
52512;SDS011;38422;53.172;6.974;2022-11-20T13:03:34;6.85;;;4.30;;
52512;SDS011;38422;53.172;6.974;2022-11-20T13:06:16;6.70;;;4.50;;
52512;SDS011;38422;53.172;6.974;2022-11-20T13:11:15;6.50;;;3.90;;
52512;SDS011;38422;53.172;6.974;2022-11-20T13:13:45;5.97;;;3.90;;
52512;SDS011;38422;53.172;6.974;2022-11-20T13:16:33;6.22;;;3.47;;
52512;SDS011;38422;53.172;6.974;2022-11-20T13:19:07;5.38;;;3.30;;
52512;SDS011;38422;53.172;6.974;2022-11-20T13:21:38;6.85;;;3.67;;
52512;SDS011;38422;53.172;6.974;2022-11-20T13:24:06;5.45;;;3.20;;
52512;SDS011;38422;53.172;6.974;2022-11-20T13:26:45;6.88;;;3.72;;
52512;SDS011;38422;53.172;6.974;2022-11-20T13:29:20;5.40;;;3.73;;
52512;SDS011;38422;53.172;6.974;2022-11-20T13:31:46;6.10;;;3.83;;
52512;SDS011;38422;53.172;6.974;2022-11-20T13:34:26;6.00;;;3.50;;
52512;SDS011;38422;53.172;6.974;2022-11-20T13:36:53;6.38;;;3.67;;
52512;SDS011;38422;53.172;6.974;2022-11-20T13:39:28;7.43;;;4.30;;
52512;SDS011;38422;53.172;6.974;2022-11-20T13:44:37;13.40;;;8.18;;
52512;SDS011;38422;53.172;6.974;2022-11-20T13:47:25;7.82;;;4.82;;
52512;SDS011;38422;53.172;6.974;2022-11-20T13:49:52;6.30;;;4.25;;
52512;SDS011;38422;53.172;6.974;2022-11-20T14:00:20;7.15;;;4.35;;
52512;SDS011;38422;53.172;6.974;2022-11-20T14:06:25;6.57;;;4.20;;
52512;SDS011;38422;53.172;6.974;2022-11-20T14:08:42;7.32;;;4.30;;
52512;SDS011;38422;53.172;6.974;2022-11-20T14:11:13;6.93;;;4.35;;
52512;SDS011;38422;53.172;6.974;2022-11-20T14:14:46;6.40;;;4.25;;
52512;SDS011;38422;53.172;6.974;2022-11-20T14:16:44;8.23;;;4.65;;
52512;SDS011;38422;53.172;6.974;2022-11-20T14:22:47;6.97;;;4.68;;
52512;SDS011;38422;53.172;6.974;2022-11-20T14:24:44;7.05;;;4.68;;
52512;SDS011;38422;53.172;6.974;2022-11-20T14:27:12;7.07;;;4.80;;
52512;SDS011;38422;53.172;6.974;2022-11-20T14:29:40;7.30;;;4.68;;
52512;SDS011;38422;53.172;6.974;2022-11-20T14:32:08;7.65;;;4.95;;
52512;SDS011;38422;53.172;6.974;2022-11-20T14:34:37;8.00;;;5.10;;
52512;SDS011;38422;53.172;6.974;2022-11-20T14:37:10;7.57;;;4.97;;
52512;SDS011;38422;53.172;6.974;2022-11-20T14:39:41;8.80;;;5.10;;
52512;SDS011;38422;53.172;6.974;2022-11-20T14:42:17;8.02;;;5.20;;
52512;SDS011;38422;53.172;6.974;2022-11-20T14:44:48;7.68;;;4.78;;
52512;SDS011;38422;53.172;6.974;2022-11-20T14:47:18;8.02;;;5.00;;
52512;SDS011;38422;53.172;6.974;2022-11-20T14:49:46;9.30;;;5.10;;
52512;SDS011;38422;53.172;6.974;2022-11-20T14:54:49;9.07;;;5.13;;
52512;SDS011;38422;53.172;6.974;2022-11-20T14:57:31;8.68;;;5.10;;
52512;SDS011;38422;53.172;6.974;2022-11-20T15:02:33;8.50;;;5.50;;
52512;SDS011;38422;53.172;6.974;2022-11-20T15:05:03;8.68;;;5.60;;
52512;SDS011;38422;53.172;6.974;2022-11-20T15:07:34;9.18;;;5.82;;
52512;SDS011;38422;53.172;6.974;2022-11-20T15:10:08;8.25;;;5.53;;
52512;SDS011;38422;53.172;6.974;2022-11-20T15:12:41;8.30;;;5.47;;
52512;SDS011;38422;53.172;6.974;2022-11-20T15:15:15;8.73;;;5.57;;
52512;SDS011;38422;53.172;6.974;2022-11-20T15:18:03;8.23;;;5.30;;
52512;SDS011;38422;53.172;6.974;2022-11-20T15:20:30;9.23;;;5.38;;
52512;SDS011;38422;53.172;6.974;2022-11-20T15:22:57;9.73;;;5.57;;
52512;SDS011;38422;53.172;6.974;2022-11-20T15:25:23;10.18;;;6.18;;
52512;SDS011;38422;53.172;6.974;2022-11-20T15:27:51;9.13;;;5.35;;
52512;SDS011;38422;53.172;6.974;2022-11-20T15:30:21;10.70;;;5.72;;
52512;SDS011;38422;53.172;6.974;2022-11-20T15:32:47;7.93;;;5.65;;
52512;SDS011;38422;53.172;6.974;2022-11-20T15:35:13;9.63;;;5.50;;
52512;SDS011;38422;53.172;6.974;2022-11-20T15:37:39;8.65;;;5.60;;
52512;SDS011;38422;53.172;6.974;2022-11-20T15:40:06;8.45;;;6.00;;
52512;SDS011;38422;53.172;6.974;2022-11-20T15:42:33;9.88;;;5.70;;
52512;SDS011;38422;53.172;6.974;2022-11-20T15:44:59;8.85;;;5.57;;
52512;SDS011;38422;53.172;6.974;2022-11-20T15:47:26;7.93;;;5.22;;
52512;SDS011;38422;53.172;6.974;2022-11-20T15:49:54;9.02;;;5.80;;
52512;SDS011;38422;53.172;6.974;2022-11-20T15:52:20;8.75;;;6.00;;
52512;SDS011;38422;53.172;6.974;2022-11-20T15:54:46;9.52;;;5.93;;
52512;SDS011;38422;53.172;6.974;2022-11-20T15:57:12;8.80;;;5.68;;
52512;SDS011;38422;53.172;6.974;2022-11-20T15:59:38;8.82;;;5.50;;
52512;SDS011;38422;53.172;6.974;2022-11-20T16:04:38;9.48;;;6.75;;
52512;SDS011;38422;53.172;6.974;2022-11-20T16:07:04;10.68;;;7.82;;
52512;SDS011;38422;53.172;6.974;2022-11-20T16:09:30;13.18;;;9.93;;
52512;SDS011;38422;53.172;6.974;2022-11-20T16:11:56;10.50;;;7.43;;
52512;SDS011;38422;53.172;6.974;2022-11-20T16:14:24;12.40;;;7.53;;
52512;SDS011;38422;53.172;6.974;2022-11-20T16:17:09;9.85;;;6.60;;
52512;SDS011;38422;53.172;6.974;2022-11-20T16:19:35;9.77;;;6.38;;
52512;SDS011;38422;53.172;6.974;2022-11-20T16:22:01;10.48;;;6.50;;
52512;SDS011;38422;53.172;6.974;2022-11-20T16:24:26;9.75;;;6.35;;
52512;SDS011;38422;53.172;6.974;2022-11-20T16:26:53;11.07;;;6.90;;
52512;SDS011;38422;53.172;6.974;2022-11-20T16:29:18;10.55;;;7.03;;
52512;SDS011;38422;53.172;6.974;2022-11-20T16:31:44;10.75;;;7.20;;
52512;SDS011;38422;53.172;6.974;2022-11-20T16:34:10;10.23;;;6.90;;
52512;SDS011;38422;53.172;6.974;2022-11-20T16:36:38;11.60;;;7.00;;
52512;SDS011;38422;53.172;6.974;2022-11-20T16:39:05;9.52;;;6.45;;